Honey Creek, Wisconsin
Current Conditions -  °F | °C
As of 8:15 AM on Sunday 23 Nov 2014 (Local Time) from KBUU Reporting Station
Overcast Overcast  
Wind Chill: 42°   Ceiling: 2100
Heat Index: 47°   Visibility: 10mi
Dew Point: 43°   Wind: 12mph
Humidity: 85%   Direction: 190°S
Pressure: 29.7"   Gusts: 18mph
Location:  42.75°N, 88.31°W
Report Text: KBUU 231415Z AUTO 19010G16KT 10SM OVC021 08/06 A2970 RMK AO2 T00830059
Loading
Personal Weather Stations






























Interactive Weather Map New forecast layout! Learn more

10-Day Weather Forecast

Advertisements
Track Severe Weather on mobile